Time;durP1;ratioP1;P1;durP2;ratioP2;P2;SDS_P1;SDS_P2;PMS_P1;PMS_P2;Temp;Humidity;BMP_temperature;BMP_pressure;BME280_temperature;BME280_humidity;BME280_pressure;Samples;Min_cycle;Max_cycle;Signal;HPM_P1;HPM_P2
2021/07/04 00:02:00;;;;;;;27.25;20.20;;;;;;;17.85;100.00;100760.03;4947311;28;20279;-79
2021/07/04 00:04:26;;;;;;;29.75;21.55;;;;;;;17.85;100.00;100762.75;4947623;28;20470;-79
2021/07/04 00:06:52;;;;;;;26.67;20.50;;;;;;;17.84;100.00;100751.06;4951937;28;20058;-78
2021/07/04 00:09:17;;;;;;;31.27;23.75;;;;;;;17.84;100.00;100758.34;4965729;28;20039;-78
2021/07/04 00:11:42;;;;;;;27.45;20.70;;;;;;;17.80;100.00;100756.06;4955859;28;20092;-79
2021/07/04 00:14:09;;;;;;;28.65;21.27;;;;;;;17.78;100.00;100755.44;4983788;28;20046;-80
2021/07/04 00:16:35;;;;;;;28.55;20.98;;;;;;;17.75;100.00;100742.28;4966087;28;20039;-78
2021/07/04 00:19:00;;;;;;;26.38;20.33;;;;;;;17.73;100.00;100749.78;4934630;28;20035;-79
2021/07/04 00:21:26;;;;;;;26.67;21.17;;;;;;;17.73;100.00;100749.78;4946270;28;20043;-79
2021/07/04 00:23:52;;;;;;;29.58;22.13;;;;;;;17.73;100.00;100748.97;4956516;28;20038;-78
2021/07/04 00:26:18;;;;;;;31.60;21.92;;;;;;;17.70;100.00;100747.50;4983902;28;20049;-80
2021/07/04 00:28:43;;;;;;;31.33;23.63;;;;;;;17.68;100.00;100746.88;4968829;28;20034;-79
2021/07/04 00:31:09;;;;;;;34.05;24.90;;;;;;;17.71;100.00;100735.59;4977047;28;20062;-79
2021/07/04 00:33:34;;;;;;;30.92;24.50;;;;;;;17.69;100.00;100743.09;4933213;28;20042;-78
2021/07/04 00:35:59;;;;;;;30.27;24.38;;;;;;;17.68;100.00;100738.72;4967161;28;20372;-78
2021/07/04 00:38:25;;;;;;;30.63;24.17;;;;;;;17.66;100.00;100727.25;4931020;28;20522;-79
2021/07/04 00:40:53;;;;;;;30.63;23.80;;;;;;;17.65;100.00;100725.59;4968750;28;20041;-78
2021/07/04 00:43:18;;;;;;;34.22;24.67;;;;;;;17.62;100.00;100720.59;4970990;28;20122;-79
2021/07/04 00:45:43;;;;;;;29.50;22.88;;;;;;;17.60;100.00;100722.66;4981290;28;20060;-78
2021/07/04 00:48:09;;;;;;;29.13;23.48;;;;;;;17.61;100.00;100718.94;4982008;28;20058;-79
2021/07/04 00:50:35;;;;;;;31.42;24.00;;;;;;;17.58;100.00;100719.34;4937207;28;20124;-79
2021/07/04 00:53:03;;;;;;;29.13;23.63;;;;;;;17.58;100.00;100722.06;4969850;28;20488;-80
2021/07/04 00:55:29;;;;;;;30.83;24.00;;;;;;;17.59;100.00;100712.88;4987289;28;20475;-79
2021/07/04 00:57:54;;;;;;;31.65;24.23;;;;;;;17.58;100.00;100713.94;4952935;28;20046;-79
2021/07/04 01:00:23;;;;;;;30.65;22.95;;;;;;;17.56;100.00;100721.44;4923271;28;20041;-79
2021/07/04 01:02:49;;;;;;;31.48;23.40;;;;;;;17.55;100.00;100720.63;4932891;28;20038;-78
2021/07/04 01:05:17;;;;;;;32.40;24.40;;;;;;;17.54;100.00;100718.09;4958575;28;20058;-79
2021/07/04 01:07:44;;;;;;;28.23;23.30;;;;;;;17.51;100.00;100710.38;4949043;28;20479;-79
2021/07/04 01:10:12;;;;;;;31.48;22.58;;;;;;;17.51;100.00;100718.53;4932505;28;20381;-79
2021/07/04 01:12:38;;;;;;;31.30;23.30;;;;;;;17.49;100.00;100720.59;4964619;28;20034;-79
2021/07/04 01:15:05;;;;;;;30.67;21.58;;;;;;;17.48;100.00;100719.78;4981174;28;20034;-79
2021/07/04 01:17:33;;;;;;;29.60;22.10;;;;;;;17.49;100.00;100716.03;4962560;28;20039;-78
2021/07/04 01:19:58;;;;;;;28.75;21.95;;;;;;;17.50;100.00;100712.28;4979486;28;20050;-78
2021/07/04 01:22:27;;;;;;;30.88;22.63;;;;;;;17.52;100.00;100712.03;4970297;28;20058;-77
2021/07/04 01:24:52;;;;;;;30.47;21.80;;;;;;;17.51;100.00;100711.22;4961600;28;20134;-79
2021/07/04 01:27:18;;;;;;;27.98;21.50;;;;;;;17.47;100.00;100711.88;4953596;28;20353;-79
2021/07/04 01:29:43;;;;;;;28.58;21.33;;;;;;;17.46;100.00;100713.72;4958838;28;20305;-79
2021/07/04 01:32:09;;;;;;;28.25;20.98;;;;;;;17.43;100.00;100711.44;4965330;28;20543;-78
2021/07/04 01:34:34;;;;;;;27.05;20.83;;;;;;;17.43;100.00;100711.44;4963571;28;20152;-79
2021/07/04 01:36:59;;;;;;;25.75;19.85;;;;;;;17.42;100.00;100712.47;4955176;28;20043;-79
2021/07/04 01:39:25;;;;;;;27.65;21.27;;;;;;;17.43;100.00;100721.44;4974115;28;20046;-78
2021/07/04 01:41:50;;;;;;;26.45;19.73;;;;;;;17.40;100.00;100717.28;4978217;28;20491;-79
2021/07/04 01:44:15;;;;;;;27.08;21.23;;;;;;;17.49;100.00;100716.03;4936433;28;20054;-78
2021/07/04 01:46:41;;;;;;;25.55;19.45;;;;;;;17.46;100.00;100715.59;4957859;28;20495;-79
2021/07/04 01:49:06;;;;;;;25.20;19.38;;;;;;;17.36;100.00;100718.75;4965042;28;20073;-79
2021/07/04 01:51:32;;;;;;;27.02;20.40;;;;;;;17.35;100.00;100715.22;4947899;28;20407;-78
2021/07/04 01:53:57;;;;;;;27.10;21.27;;;;;;;17.43;100.00;100716.84;4930085;28;20100;-79
2021/07/04 01:56:23;;;;;;;27.23;21.42;;;;;;;17.51;100.00;100707.66;4932115;28;20049;-79
2021/07/04 01:58:49;;;;;;;26.88;21.55;;;;;;;17.57;100.00;100698.69;4964621;28;20238;-79
2021/07/04 02:01:14;;;;;;;28.73;22.10;;;;;;;17.57;100.00;100690.53;4941003;28;20160;-79
2021/07/04 02:03:40;;;;;;;30.23;21.60;;;;;;;17.58;100.00;100694.94;4938303;28;20109;-78
2021/07/04 02:06:05;;;;;;;29.27;22.45;;;;;;;17.56;100.00;100697.84;4932493;29;20047;-79
2021/07/04 02:08:31;;;;;;;29.80;23.13;;;;;;;17.55;100.00;100687.19;4949504;29;20093;-78
2021/07/04 02:10:56;;;;;;;29.25;23.65;;;;;;;17.52;100.00;100684.91;4941844;29;20044;-78
2021/07/04 02:13:22;;;;;;;28.40;23.20;;;;;;;17.50;100.00;100695.16;4946753;28;20043;-79
2021/07/04 02:15:47;;;;;;;30.65;22.63;;;;;;;17.46;100.00;100686.59;4948541;29;20036;-78
2021/07/04 02:18:15;;;;;;;34.63;25.58;;;;;;;17.48;100.00;100686.41;4949716;29;20122;-78
2021/07/04 02:20:43;;;;;;;29.65;23.70;;;;;;;17.43;100.00;100694.31;4928605;29;20404;-78
2021/07/04 02:23:14;;;;;;;30.58;23.42;;;;;;;17.38;100.00;100692.28;4951351;28;20045;-78
2021/07/04 02:25:46;;;;;;;30.80;22.92;;;;;;;17.41;100.00;100680.16;4966405;28;20062;-78
2021/07/04 02:28:16;;;;;;;33.35;23.80;;;;;;;17.44;100.00;100688.72;4951004;28;20054;-79
2021/07/04 02:30:41;;;;;;;;;;;;;;;17.48;100.00;100689.09;4968085;28;20714;-78
2021/07/04 02:33:08;;;;;;;31.48;24.50;;;;;;;17.46;100.00;100688.47;4959703;28;19973;-78
2021/07/04 02:35:37;;;;;;;35.83;27.05;;;;;;;17.46;100.00;100685.75;4967355;28;20053;-78
2021/07/04 02:38:04;;;;;;;36.20;27.87;;;;;;;17.49;100.00;100678.06;4958600;28;20269;-78
2021/07/04 02:40:30;;;;;;;38.67;27.75;;;;;;;17.50;100.00;100684.31;4962906;28;20169;-78
2021/07/04 02:42:56;;;;;;;35.17;27.80;;;;;;;17.53;100.00;100694.75;4962080;28;20097;-79
2021/07/04 02:45:22;;;;;;;36.33;27.67;;;;;;;17.56;100.00;100692.44;4949735;28;20066;-79
2021/07/04 02:47:48;;;;;;;36.90;28.60;;;;;;;17.55;100.00;100687.19;4966003;28;20125;-78
2021/07/04 02:50:14;;;;;;;38.00;28.90;;;;;;;17.56;100.00;100688.88;4965841;28;20125;-78
2021/07/04 02:52:40;;;;;;;39.13;29.55;;;;;;;17.54;100.00;100686.38;4959285;28;20453;-78
2021/07/04 02:55:08;;;;;;;40.33;30.25;;;;;;;17.53;100.00;100679.28;4968341;28;20043;-79
2021/07/04 02:57:33;;;;;;;40.38;29.52;;;;;;;17.50;100.00;100682.44;4964016;28;20598;-79
2021/07/04 02:59:59;;;;;;;39.10;29.83;;;;;;;17.49;100.00;100688.06;4951461;28;20161;-79
2021/07/04 03:02:24;;;;;;;39.15;28.45;;;;;;;17.46;100.00;100672.19;4950258;28;20047;-79
2021/07/04 03:04:51;;;;;;;39.78;28.40;;;;;;;17.43;100.00;100672.63;4967209;28;20134;-79
2021/07/04 03:07:17;;;;;;;42.65;30.58;;;;;;;17.42;100.00;100671.81;4967293;28;20069;-79
2021/07/04 03:09:43;;;;;;;41.92;29.17;;;;;;;17.40;100.00;100673.88;4967315;28;20464;-79
2021/07/04 03:12:09;;;;;;;39.20;30.40;;;;;;;17.40;100.00;100673.06;4947715;28;20051;-79
2021/07/04 03:14:34;;;;;;;42.88;30.88;;;;;;;17.39;100.00;100672.22;4924383;28;22153;-80
2021/07/04 03:17:00;;;;;;;40.83;29.63;;;;;;;17.40;100.00;100679.31;4953438;28;20054;-79
2021/07/04 03:19:25;;;;;;;44.50;30.70;;;;;;;17.41;100.00;100672.03;4956576;28;20078;-79
2021/07/04 03:21:50;;;;;;;45.13;30.88;;;;;;;17.40;100.00;100673.06;4925400;28;20126;-79
2021/07/04 03:24:16;;;;;;;40.95;30.17;;;;;;;17.39;100.00;100677.66;4960516;28;20059;-79
2021/07/04 03:26:41;;;;;;;39.80;29.83;;;;;;;17.37;100.00;100669.72;4945534;28;20125;-79
2021/07/04 03:29:07;;;;;;;41.30;28.27;;;;;;;17.35;100.00;100666.41;4976103;28;20374;-79
2021/07/04 03:31:32;;;;;;;39.47;28.98;;;;;;;17.37;100.00;100661.56;4931881;29;20054;-79
2021/07/04 03:33:58;;;;;;;38.78;30.27;;;;;;;17.37;100.00;100660.75;4948633;28;20050;-79
2021/07/04 03:36:23;;;;;;;41.03;29.92;;;;;;;17.33;100.00;100664.94;4948163;29;20480;-79
2021/07/04 03:38:48;;;;;;;39.58;28.90;;;;;;;17.29;100.00;100666.38;4927788;29;20767;-79
2021/07/04 03:41:14;;;;;;;40.65;29.00;;;;;;;17.25;100.00;100670.59;4948321;28;20234;-79
2021/07/04 03:43:39;;;;;;;39.17;28.48;;;;;;;17.23;100.00;100675.38;4929058;29;20043;-79
2021/07/04 03:46:04;;;;;;;38.33;29.23;;;;;;;17.24;100.00;100675.19;4947166;28;20053;-78
2021/07/04 03:48:30;;;;;;;41.03;29.25;;;;;;;17.24;100.00;100668.94;4937372;28;20043;-79
2021/07/04 03:50:55;;;;;;;38.28;27.58;;;;;;;17.24;100.00;100675.19;4935932;28;20035;-79
2021/07/04 03:53:21;;;;;;;38.10;27.40;;;;;;;17.25;100.00;100674.13;4950291;28;20557;-79
2021/07/04 03:55:46;;;;;;;35.90;27.40;;;;;;;17.26;100.00;100669.53;4967146;28;20101;-79
2021/07/04 03:58:12;;;;;;;40.50;29.42;;;;;;;17.30;100.00;100665.38;4967150;28;20066;-78
2021/07/04 04:00:37;;;;;;;37.45;26.90;;;;;;;17.28;100.00;100665.56;4931527;28;20153;-79
2021/07/04 04:03:03;;;;;;;44.38;28.63;;;;;;;17.28;100.00;100681.00;4947545;28;20089;-79
2021/07/04 04:05:28;;;;;;;37.38;27.55;;;;;;;17.27;100.00;100682.06;4941209;28;20050;-79
2021/07/04 04:07:53;;;;;;;36.75;27.83;;;;;;;17.28;100.00;100676.41;4948128;28;20034;-79
2021/07/04 04:10:19;;;;;;;39.17;29.58;;;;;;;17.34;100.00;100669.31;4952467;28;20053;-79
2021/07/04 04:12:44;;;;;;;40.80;29.98;;;;;;;17.34;100.00;100674.72;4966226;28;20038;-80
2021/07/04 04:15:11;;;;;;;41.80;28.85;;;;;;;17.34;100.00;100670.13;4966103;28;20055;-79
2021/07/04 04:17:37;;;;;;;38.58;30.45;;;;;;;17.32;100.00;100677.66;4963946;28;20047;-80
2021/07/04 04:20:04;;;;;;;42.45;30.73;;;;;;;17.33;100.00;100681.22;4964235;28;20479;-79
2021/07/04 04:22:30;;;;;;;46.92;30.15;;;;;;;17.34;100.00;100669.31;4967258;28;20039;-80
2021/07/04 04:24:55;;;;;;;42.47;30.83;;;;;;;17.33;100.00;100673.06;4948337;28;20050;-79
2021/07/04 04:27:20;;;;;;;42.42;30.17;;;;;;;17.34;100.00;100672.03;4946339;28;20137;-79
2021/07/04 04:29:46;;;;;;;45.33;31.75;;;;;;;17.31;100.00;100670.56;4945992;28;20406;-79
2021/07/04 04:32:11;;;;;;;46.17;30.52;;;;;;;17.29;100.00;100674.53;4923205;28;20051;-79
2021/07/04 04:34:37;;;;;;;44.92;30.63;;;;;;;17.31;100.00;100670.56;4926452;28;20050;-79
2021/07/04 04:37:03;;;;;;;45.55;29.98;;;;;;;17.29;100.00;100664.53;4957216;28;20114;-79
2021/07/04 04:39:29;;;;;;;42.67;31.48;;;;;;;17.31;100.00;100667.84;4949666;28;20096;-79
2021/07/04 04:41:55;;;;;;;45.10;30.85;;;;;;;17.32;100.00;100666.81;4944242;28;20282;-79
2021/07/04 04:44:21;;;;;;;46.97;31.27;;;;;;;17.33;100.00;100673.06;4972985;28;20054;-79
2021/07/04 04:46:46;;;;;;;44.72;31.98;;;;;;;17.31;100.00;100661.59;4966667;28;20041;-78
2021/07/04 04:49:12;;;;;;;47.60;31.38;;;;;;;17.32;100.00;100665.97;4967642;28;20400;-79
2021/07/04 04:51:41;;;;;;;46.30;30.98;;;;;;;17.32;100.00;100672.25;4945233;28;20060;-79
2021/07/04 04:54:08;;;;;;;44.20;30.90;;;;;;;17.30;100.00;100658.06;4963441;28;20145;-78
2021/07/04 04:56:34;;;;;;;46.58;32.30;;;;;;;17.32;100.00;100669.53;4954782;28;20389;-79
2021/07/04 04:59:00;;;;;;;50.20;31.95;;;;;;;17.27;100.00;100674.75;4950820;28;20035;-79
2021/07/04 05:01:29;;;;;;;45.38;31.38;;;;;;;17.22;100.00;100671.84;4955557;28;20049;-79
2021/07/04 05:03:57;;;;;;;46.53;32.38;;;;;;;17.26;100.00;100672.25;4960907;28;20306;-79
2021/07/04 05:06:23;;;;;;;46.40;31.70;;;;;;;17.26;100.00;100673.09;4949805;28;20043;-79
2021/07/04 05:08:49;;;;;;;44.78;32.45;;;;;;;17.27;100.00;100679.34;4965174;28;20034;-79
2021/07/04 05:11:15;;;;;;;49.70;34.15;;;;;;;17.29;100.00;100667.25;4971063;28;20051;-79
2021/07/04 05:13:41;;;;;;;44.10;31.65;;;;;;;17.31;100.00;100665.13;4956219;28;20039;-79
2021/07/04 05:16:07;;;;;;;46.67;31.58;;;;;;;17.33;100.00;100662.22;4963365;28;20057;-79
2021/07/04 05:18:33;;;;;;;48.63;33.53;;;;;;;17.34;100.00;100663.88;4946246;28;20500;-79
2021/07/04 05:20:59;;;;;;;45.42;31.73;;;;;;;17.33;100.00;100663.06;4970193;28;20533;-79
2021/07/04 05:23:25;;;;;;;48.85;33.25;;;;;;;17.40;100.00;100667.63;4962240;28;20129;-79
2021/07/04 05:25:53;;;;;;;49.50;33.63;;;;;;;17.43;100.00;100661.78;4962828;28;20054;-79
2021/07/04 05:28:19;;;;;;;48.53;33.20;;;;;;;17.40;100.00;100652.19;4963577;28;20508;-79
2021/07/04 05:30:44;;;;;;;47.17;33.08;;;;;;;17.43;100.00;100657.19;4965033;28;20081;-78
2021/07/04 05:33:10;;;;;;;49.20;32.92;;;;;;;17.43;100.00;100649.03;4940342;28;20050;-78
2021/07/04 05:35:35;;;;;;;47.88;34.20;;;;;;;17.40;100.00;100646.75;4963653;28;22081;-79
2021/07/04 05:38:01;;;;;;;46.47;33.15;;;;;;;17.41;100.00;100658.47;4949356;28;20090;-79
2021/07/04 05:40:26;;;;;;;46.03;32.40;;;;;;;17.45;100.00;100652.38;4969320;28;20484;-79
2021/07/04 05:42:53;;;;;;;44.83;32.90;;;;;;;17.44;100.00;100642.59;4970094;28;20070;-78
2021/07/04 05:45:24;;;;;;;47.00;31.98;;;;;;;17.48;100.00;100653.84;4968790;28;20073;-79
2021/07/04 05:47:50;;;;;;;46.25;32.38;;;;;;;17.50;100.00;100657.19;4964343;28;20451;-79
2021/07/04 05:50:16;;;;;;;41.72;30.77;;;;;;;17.51;100.00;100654.25;4968059;28;20266;-79
2021/07/04 05:52:41;;;;;;;44.28;30.65;;;;;;;17.50;100.00;100657.19;4950403;28;20047;-79
2021/07/04 05:55:07;;;;;;;41.10;29.67;;;;;;;17.46;100.00;100654.03;4937470;28;20400;-79
2021/07/04 05:57:32;;;;;;;44.60;31.55;;;;;;;17.54;100.00;100661.13;4967391;28;20034;-79
2021/07/04 05:59:58;;;;;;;41.10;31.88;;;;;;;17.59;100.00;100662.16;4973217;28;20042;-79
2021/07/04 06:02:23;;;;;;;39.75;30.58;;;;;;;17.67;100.00;100650.25;4934191;28;20042;-79
2021/07/04 06:04:49;;;;;;;42.33;30.23;;;;;;;17.68;100.00;100651.91;4896882;29;20059;-80
2021/07/04 06:07:14;;;;;;;43.83;31.80;;;;;;;17.75;100.00;100650.00;4911741;29;20110;-80
2021/07/04 06:09:39;;;;;;;42.65;31.42;;;;;;;17.81;100.00;100651.88;4939500;29;20050;-80
2021/07/04 06:12:06;;;;;;;40.00;30.10;;;;;;;17.85;100.00;100651.44;4929198;29;20130;-80
2021/07/04 06:14:31;;;;;;;41.08;29.45;;;;;;;17.87;100.00;100647.47;4922493;29;20394;-80
2021/07/04 06:16:57;;;;;;;35.78;28.02;;;;;;;17.89;100.00;100644.53;4904216;29;20084;-79
2021/07/04 06:19:22;;;;;;;40.15;30.80;;;;;;;17.89;100.00;100648.06;4923070;28;20551;-80
2021/07/04 06:21:47;;;;;;;38.65;30.08;;;;;;;17.94;100.00;100645.56;4926641;29;20058;-79
2021/07/04 06:24:13;;;;;;;37.05;30.33;;;;;;;17.93;100.00;100643.91;4925201;28;20052;-80
2021/07/04 06:26:38;;;;;;;39.75;30.20;;;;;;;17.99;100.00;100640.31;4930196;29;20039;-80
2021/07/04 06:29:04;;;;;;;37.60;29.25;;;;;;;18.01;100.00;100638.22;4943496;28;20050;-80
2021/07/04 06:31:29;;;;;;;40.85;30.77;;;;;;;18.04;100.00;100642.38;4930380;28;20130;-79
2021/07/04 06:33:57;;;;;;;36.00;28.90;;;;;;;18.06;100.00;100645.69;4952815;28;20053;-80
2021/07/04 06:36:27;;;;;;;38.80;27.50;;;;;;;18.09;100.00;100639.00;4931142;28;20047;-79
2021/07/04 06:38:53;;;;;;;34.47;27.63;;;;;;;18.12;100.00;100644.81;4917893;28;20642;-79
2021/07/04 06:41:18;;;;;;;34.60;27.02;;;;;;;18.17;100.00;100653.16;4916629;28;20070;-80
2021/07/04 06:43:44;;;;;;;36.40;29.45;;;;;;;18.24;100.00;100653.97;4956201;28;20043;-80
2021/07/04 06:46:09;;;;;;;32.85;26.63;;;;;;;18.30;100.00;100646.84;4933517;28;20059;-80
2021/07/04 06:48:37;;;;;;;46.65;29.52;;;;;;;18.36;100.00;100639.69;4961145;28;20050;-80
2021/07/04 06:51:02;;;;;;;34.75;27.55;;;;;;;18.38;100.00;100637.56;4939210;29;20134;-79
2021/07/04 06:53:28;;;;;;;35.38;26.90;;;;;;;18.40;100.00;100630.03;4964519;28;20142;-79
2021/07/04 06:55:53;;;;;;;35.53;28.80;;;;;;;18.44;100.00;100628.53;4922516;28;20039;-80
2021/07/04 06:58:18;;;;;;;35.42;26.92;;;;;;;18.43;100.00;100621.44;4932800;28;20039;-80
2021/07/04 07:00:44;;;;;;;34.65;26.60;;;;;;;18.49;100.00;100618.66;4938644;28;20066;-79
2021/07/04 07:03:09;;;;;;;35.03;26.60;;;;;;;18.58;100.00;100619.22;4955728;28;20547;-79
2021/07/04 07:05:35;;;;;;;40.22;30.50;;;;;;;18.70;100.00;100611.19;4941835;28;20094;-79
2021/07/04 07:08:00;;;;;;;32.83;26.73;;;;;;;18.72;100.00;100606.38;4940497;29;20051;-80
2021/07/04 07:10:25;;;;;;;29.60;24.30;;;;;;;18.69;100.00;100604.94;4932340;28;20047;-80
2021/07/04 07:12:51;;;;;;;29.02;24.95;;;;;;;18.72;100.00;100607.19;4927367;28;20115;-80
2021/07/04 07:15:16;;;;;;;27.92;23.33;;;;;;;18.76;100.00;100607.63;4929823;28;20066;-80
2021/07/04 07:17:42;;;;;;;30.35;23.95;;;;;;;18.82;100.00;100606.75;4937367;29;20122;-80
2021/07/04 07:20:08;;;;;;;28.25;22.13;;;;;;;18.90;100.00;100608.31;4930536;29;20046;-80
2021/07/04 07:22:34;;;;;;;26.45;22.00;;;;;;;18.91;100.00;100602.69;4940438;29;20544;-80
2021/07/04 07:25:00;;;;;;;25.35;21.92;;;;;;;18.97;100.00;100591.97;4933758;29;20048;-80
2021/07/04 07:27:25;;;;;;;27.05;20.88;;;;;;;19.02;100.00;100587.53;4943694;28;20444;-79
2021/07/04 07:29:51;;;;;;;27.52;21.13;;;;;;;19.08;100.00;100592.06;4907428;28;20042;-80
2021/07/04 07:32:16;;;;;;;26.05;20.65;;;;;;;19.12;100.00;100595.97;4942421;28;20140;-80
2021/07/04 07:34:41;;;;;;;25.60;20.48;;;;;;;19.21;100.00;100601.13;4933610;28;20035;-80
2021/07/04 07:37:07;;;;;;;24.80;20.67;;;;;;;19.31;100.00;100606.88;4932427;28;20051;-80
2021/07/04 07:39:33;;;;;;;27.33;19.90;;;;;;;19.39;100.00;100606.56;4933486;28;20094;-80
2021/07/04 07:41:58;;;;;;;22.75;19.50;;;;;;;19.41;100.00;100609.88;4916458;28;20031;-79
2021/07/04 07:44:23;;;;;;;23.90;20.20;;;;;;;19.47;100.00;100611.69;4948185;28;20057;-80
2021/07/04 07:46:49;;;;;;;26.15;21.80;;;;;;;19.55;100.00;100603.22;4954356;28;20031;-80
2021/07/04 07:49:15;;;;;;;25.58;20.67;;;;;;;19.60;100.00;100597.94;4949289;28;20048;-80
2021/07/04 07:51:41;;;;;;;25.75;20.90;;;;;;;19.68;100.00;100604.16;4957123;28;20038;-80
2021/07/04 07:54:06;;;;;;;24.80;20.77;;;;;;;19.74;100.00;100597.81;4949799;28;20392;-80
2021/07/04 07:56:32;;;;;;;27.20;20.42;;;;;;;19.82;100.00;100595.63;4933163;28;20094;-80
2021/07/04 07:58:57;;;;;;;28.50;21.48;;;;;;;19.87;100.00;100600.34;4912804;29;20032;-80
2021/07/04 08:01:23;;;;;;;25.33;20.70;;;;;;;19.84;100.00;100598.91;4937251;28;20419;-81
2021/07/04 08:03:48;;;;;;;25.77;22.30;;;;;;;19.96;100.00;100598.97;4957186;28;20035;-80
2021/07/04 08:06:14;;;;;;;28.40;23.17;;;;;;;20.03;100.00;100601.59;4952012;28;20045;-80
2021/07/04 08:08:39;;;;;;;28.05;21.88;;;;;;;20.03;100.00;100593.44;4954393;28;20046;-80
2021/07/04 08:11:05;;;;;;;26.73;23.08;;;;;;;20.06;100.00;100590.25;4942078;28;20050;-79
2021/07/04 08:13:31;;;;;;;29.13;24.38;;;;;;;20.15;100.00;100593.47;4939099;28;20749;-81
2021/07/04 08:15:56;;;;;;;28.77;24.83;;;;;;;20.25;100.00;100589.13;4921382;29;20054;-81
2021/07/04 08:18:24;;;;;;;29.73;26.52;;;;;;;20.38;99.10;100581.81;4938419;28;20045;-81
2021/07/04 08:20:49;;;;;;;28.67;24.88;;;;;;;20.58;100.00;100581.50;4921178;28;20039;-81
2021/07/04 08:23:16;;;;;;;30.45;26.75;;;;;;;20.72;100.00;100577.50;4940882;28;20054;-81
2021/07/04 08:25:42;;;;;;;29.30;26.20;;;;;;;20.82;100.00;100576.91;4945793;28;20498;-81
2021/07/04 08:28:07;;;;;;;29.55;25.17;;;;;;;20.79;97.47;100577.38;4912447;29;20047;-81
2021/07/04 08:30:32;;;;;;;30.50;25.88;;;;;;;20.73;98.17;100569.06;4935517;28;20422;-82
2021/07/04 08:32:58;;;;;;;30.15;26.77;;;;;;;20.86;100.00;100576.19;4914230;29;20075;-82
2021/07/04 08:35:23;;;;;;;30.30;26.17;;;;;;;20.95;99.31;100565.75;4928821;28;20078;-81
2021/07/04 08:37:49;;;;;;;38.75;30.92;;;;;;;20.98;96.34;100550.81;4941793;28;20070;-80
2021/07/04 08:40:14;;;;;;;35.75;31.13;;;;;;;20.99;96.30;100555.19;4956118;28;20500;-81
2021/07/04 08:42:40;;;;;;;36.58;31.20;;;;;;;20.96;94.34;100551.88;4940520;29;20043;-80
2021/07/04 08:45:07;;;;;;;37.65;30.60;;;;;;;21.01;94.75;100547.59;4917447;29;20440;-81
2021/07/04 08:47:33;;;;;;;38.88;32.33;;;;;;;21.11;96.72;100543.19;4940633;28;20046;-81
2021/07/04 08:49:58;;;;;;;36.72;30.25;;;;;;;21.12;90.69;100552.22;4929020;28;20536;-81
2021/07/04 08:52:24;;;;;;;42.13;34.60;;;;;;;21.29;93.89;100544.94;4953092;28;20076;-81
2021/07/04 08:54:50;;;;;;;37.70;32.63;;;;;;;21.36;91.87;100551.13;4958974;28;20039;-80
2021/07/04 08:57:18;;;;;;;39.03;33.35;;;;;;;21.34;90.93;100545.03;4942667;28;20039;-80
2021/07/04 08:59:46;;;;;;;39.83;35.50;;;;;;;21.36;92.98;100545.66;4947803;28;20050;-80
2021/07/04 09:02:14;;;;;;;40.33;34.53;;;;;;;21.32;90.20;100549.91;4972637;28;20382;-80
2021/07/04 09:05:10;;;;;;;39.63;34.58;;;;;;;21.26;89.74;100548.16;4951374;28;20038;-80
2021/07/04 09:07:37;;;;;;;41.75;36.47;;;;;;;21.24;90.53;100544.00;4948104;28;20038;-80
2021/07/04 09:10:05;;;;;;;39.97;35.53;;;;;;;21.23;89.72;100545.88;4962043;28;20043;-81
2021/07/04 09:12:50;;;;;;;39.90;35.42;;;;;;;21.28;90.88;100547.91;4977232;28;20073;-81
2021/07/04 09:15:20;;;;;;;38.63;34.50;;;;;;;21.24;89.75;100546.75;4969293;28;20138;-80
2021/07/04 09:17:48;;;;;;;40.00;35.70;;;;;;;21.24;91.34;100530.38;4952530;28;20047;-80
2021/07/04 09:20:33;;;;;;;47.70;37.22;;;;;;;21.16;91.27;100545.19;4949639;28;20043;-80
2021/07/04 09:23:00;;;;;;;42.25;36.83;;;;;;;21.10;92.38;100546.16;4962067;28;20062;-80
2021/07/04 09:25:42;;;;;;;44.75;38.47;;;;;;;21.07;92.55;100546.66;4948908;28;20059;-80
2021/07/04 09:28:08;;;;;;;42.97;38.28;;;;;;;21.10;92.51;100541.53;4966429;28;20039;-80
2021/07/04 09:30:43;;;;;;;42.00;36.50;;;;;;;21.14;92.86;100536.41;4961554;28;20173;-80
2021/07/04 09:33:13;;;;;;;41.20;35.97;;;;;;;21.10;91.76;100535.25;4970448;28;20047;-81
2021/07/04 09:35:39;;;;;;;42.17;37.28;;;;;;;21.23;94.41;100534.97;4954135;28;20384;-80
2021/07/04 09:38:14;;;;;;;44.22;38.00;;;;;;;21.50;94.52;100523.56;4938072;28;20480;-79
2021/07/04 09:40:39;;;;;;;36.80;32.65;;;;;;;21.56;89.10;100525.31;4962031;28;20043;-80
2021/07/04 09:43:07;;;;;;;40.33;34.83;;;;;;;21.71;88.52;100525.59;4946488;28;20035;-80
2021/07/04 09:45:48;;;;;;;38.07;32.63;;;;;;;21.81;88.85;100524.97;4964602;28;20055;-80
2021/07/04 09:48:16;;;;;;;40.28;35.33;;;;;;;21.79;89.38;100508.81;4959675;28;20051;-79
2021/07/04 09:50:48;;;;;;;41.83;35.08;;;;;;;22.08;89.71;100509.59;4952956;28;20038;-80
2021/07/04 09:53:14;;;;;;;39.67;34.70;;;;;;;22.32;88.14;100509.47;4951490;28;20631;-80
2021/07/04 09:55:40;;;;;;;37.53;33.53;;;;;;;22.31;88.42;100507.81;4967181;28;20057;-80
2021/07/04 09:58:11;;;;;;;36.60;32.05;;;;;;;22.44;89.35;100501.16;4950957;28;20047;-80
2021/07/04 10:00:43;;;;;;;35.97;31.38;;;;;;;22.50;87.67;100500.19;4948189;28;20458;-81
2021/07/04 10:03:13;;;;;;;35.45;31.75;;;;;;;22.52;84.96;100501.56;4941830;28;20037;-80
2021/07/04 10:05:41;;;;;;;34.13;30.15;;;;;;;22.35;82.53;100499.94;4947796;28;20129;-81
2021/07/04 10:08:19;;;;;;;34.35;31.00;;;;;;;22.41;85.01;100496.19;4943277;28;20046;-80
2021/07/04 10:10:44;;;;;;;33.38;29.98;;;;;;;22.39;83.86;100501.94;4965089;28;20046;-81
2021/07/04 10:13:10;;;;;;;33.50;30.10;;;;;;;22.42;85.67;100501.44;4949500;28;20031;-81
2021/07/04 10:15:35;;;;;;;33.83;30.33;;;;;;;22.55;84.84;100492.03;4953285;28;20128;-81
2021/07/04 10:18:02;;;;;;;33.10;29.80;;;;;;;22.59;84.40;100493.22;4954076;28;20038;-80
2021/07/04 10:20:29;;;;;;;31.60;28.50;;;;;;;22.86;83.98;100495.22;4938111;28;20117;-81
2021/07/04 10:22:55;;;;;;;33.05;29.83;;;;;;;22.95;82.65;100491.00;4948563;28;20039;-81
2021/07/04 10:25:20;;;;;;;31.20;28.10;;;;;;;23.06;82.52;100481.84;4937689;28;20051;-81
2021/07/04 10:27:49;;;;;;;30.42;27.45;;;;;;;23.34;84.21;100477.25;4953949;28;20136;-81
2021/07/04 10:30:15;;;;;;;32.47;29.08;;;;;;;23.51;81.67;100480.72;4955487;28;20592;-81
2021/07/04 10:33:20;;;;;;;29.08;26.17;;;;;;;23.38;80.27;100475.63;4958399;28;20622;-81
2021/07/04 10:36:09;;;;;;;30.30;27.30;;;;;;;23.66;81.75;100474.56;4953679;28;20483;-80
2021/07/04 10:38:46;;;;;;;29.60;26.77;;;;;;;23.62;80.04;100476.16;4962215;28;20270;-81
2021/07/04 10:41:15;;;;;;;30.95;27.80;;;;;;;23.27;76.25;100468.38;4963486;28;20515;-81
2021/07/04 10:43:51;;;;;;;30.40;27.33;;;;;;;23.07;78.21;100461.59;4942692;28;20043;-81
2021/07/04 10:46:17;;;;;;;28.02;25.20;;;;;;;23.10;79.18;100461.09;4970873;28;20322;-81
2021/07/04 10:48:56;;;;;;;25.33;22.75;;;;;;;23.09;75.77;100458.59;4969004;28;20035;-81
2021/07/04 10:51:23;;;;;;;22.67;20.30;;;;;;;22.98;75.97;100446.69;4949197;28;20060;-81
2021/07/04 10:53:54;;;;;;;24.65;22.13;;;;;;;22.91;75.07;100440.56;4950774;28;20120;-81
2021/07/04 10:56:34;;;;;;;28.35;25.65;;;;;;;23.06;78.39;100432.56;4968876;28;20074;-81
2021/07/04 10:59:09;;;;;;;25.17;22.70;;;;;;;23.09;76.53;100423.84;4965150;28;20105;-81
2021/07/04 11:01:48;;;;;;;26.38;23.77;;;;;;;23.07;76.98;100417.81;4967104;28;20034;-81
2021/07/04 11:04:32;;;;;;;26.75;24.15;;;;;;;23.24;77.53;100414.16;4954208;28;20476;-81